createdAt,value
2023-04-17T00:04:22.132Z,20.6
2023-04-17T00:10:15.492Z,20.6
2023-04-17T00:16:20.831Z,20.6
2023-04-17T00:21:57.444Z,20.6
2023-04-17T00:27:18.531Z,20.6
2023-04-17T00:33:11.027Z,20.6
2023-04-17T00:39:01.968Z,20.6
2023-04-17T00:44:53.673Z,20.6
2023-04-17T00:50:45.618Z,20.7
2023-04-17T00:56:36.805Z,20.6
2023-04-17T01:02:30.288Z,20.7
2023-04-17T01:13:44.338Z,20.7
2023-04-17T01:19:36.250Z,20.7
2023-04-17T01:25:27.871Z,20.7
2023-04-17T01:31:18.996Z,20.7
2023-04-17T01:42:46.826Z,20.7
2023-04-17T01:54:15.077Z,20.7
2023-04-17T01:59:51.423Z,20.8
2023-04-17T02:11:21.274Z,20.8
2023-04-17T02:28:25.645Z,20.8
2023-04-17T02:34:17.696Z,20.8
2023-04-17T02:40:08.663Z,20.8
2023-04-17T02:46:00.460Z,20.8
2023-04-17T02:51:37.030Z,20.8
2023-04-17T02:57:28.447Z,20.8
2023-04-17T03:03:21.584Z,20.8
2023-04-17T03:09:13.941Z,20.8
2023-04-17T03:15:06.065Z,20.8
2023-04-17T03:20:59.993Z,20.8
2023-04-17T03:32:30.129Z,20.8
2023-04-17T03:38:06.617Z,20.8
2023-04-17T03:49:34.602Z,20.8
2023-04-17T03:55:11.371Z,20.8
2023-04-17T04:00:47.510Z,20.8
2023-04-17T04:06:40.392Z,20.8
2023-04-17T04:12:32.023Z,20.8
2023-04-17T04:18:08.746Z,20.8
2023-04-17T04:23:45.249Z,20.8
2023-04-17T04:29:38.245Z,20.8
2023-04-17T04:35:00.173Z,20.8
2023-04-17T04:40:39.243Z,20.8
2023-04-17T04:51:36.716Z,20.8
2023-04-17T04:56:56.027Z,20.8
2023-04-17T05:02:33.331Z,20.9
2023-04-17T05:08:11.918Z,20.9
2023-04-17T05:13:47.846Z,20.9
2023-04-17T05:19:42.012Z,20.9
2023-04-17T05:25:33.442Z,20.9
2023-04-17T05:31:09.112Z,20.9
2023-04-17T05:36:45.979Z,20.9
2023-04-17T05:42:25.546Z,20.9
2023-04-17T05:48:01.476Z,20.9
2023-04-17T05:53:37.872Z,20.9
2023-04-17T05:59:29.284Z,20.9
2023-04-17T06:05:08.982Z,20.9
2023-04-17T06:10:48.092Z,20.9
2023-04-17T06:16:24.182Z,20.9
2023-04-17T06:22:01.834Z,20.9
2023-04-17T06:27:38.110Z,20.9
2023-04-17T06:33:14.123Z,20.9
2023-04-17T06:38:58.358Z,20.9
2023-04-17T06:44:19.549Z,20.9
2023-04-17T06:49:56.334Z,20.9
2023-04-17T06:55:31.759Z,20.9
2023-04-17T07:01:08.606Z,20.9
2023-04-17T07:11:54.606Z,20.9
2023-04-17T07:17:32.031Z,20.9
2023-04-17T07:23:09.475Z,20.9
2023-04-17T07:28:45.737Z,20.9
2023-04-17T07:34:22.991Z,20.9
2023-04-17T07:40:02.879Z,20.9
2023-04-17T07:45:40.446Z,20.9
2023-04-17T07:51:05.866Z,20.9
2023-04-17T07:56:45.425Z,20.9
2023-04-17T08:02:06.255Z,20.9
2023-04-17T08:07:45.781Z,20.9
2023-04-17T08:18:56.372Z,20.9
2023-04-17T08:24:36.168Z,20.9
2023-04-17T08:30:14.425Z,21
2023-04-17T08:36:24.870Z,20.9
2023-04-17T08:42:01.683Z,20.9
2023-04-17T08:47:55.113Z,20.9
2023-04-17T08:53:46.491Z,20.9
2023-04-17T08:59:08.021Z,20.9
2023-04-17T09:04:47.657Z,20.9
2023-04-17T09:10:23.712Z,20.9
2023-04-17T09:16:16.726Z,20.9
2023-04-17T09:21:38.145Z,21
2023-04-17T09:26:58.711Z,21
2023-04-17T09:32:20.959Z,20.9
2023-04-17T09:38:00.315Z,21
2023-04-17T09:43:52.011Z,20.9
2023-04-17T09:49:44.135Z,20.9
2023-04-17T10:01:14.108Z,21
2023-04-17T10:07:08.042Z,20.9
2023-04-17T10:13:00.051Z,20.9
2023-04-17T10:18:52.338Z,21
2023-04-17T10:24:46.952Z,20.9
2023-04-17T10:30:41.225Z,21
2023-04-17T10:36:35.526Z,20.9
2023-04-17T10:42:12.579Z,20.9
2023-04-17T10:48:05.686Z,21
2023-04-17T10:53:58.687Z,20.9
2023-04-17T10:59:54.206Z,21.1
2023-04-17T11:44:53.008Z,21.2
2023-04-17T11:50:45.316Z,21.2
2023-04-17T11:56:36.616Z,21.2
2023-04-17T12:02:29.196Z,21.2
2023-04-17T12:08:09.151Z,21.2
2023-04-17T12:14:01.030Z,21.2
2023-04-17T12:19:37.258Z,21.2
2023-04-17T12:25:29.329Z,21.2
2023-04-17T12:31:05.858Z,21.2
2023-04-17T12:36:42.437Z,21.2
2023-04-17T12:48:26.151Z,21.2
2023-04-17T12:54:17.794Z,21.2
2023-04-17T13:00:09.596Z,21.2
2023-04-17T13:06:03.894Z,21.2
2023-04-17T13:17:17.225Z,21.2
2023-04-17T13:23:09.553Z,21.3
2023-04-17T13:29:00.833Z,21.2
2023-04-17T13:34:56.264Z,21.3
2023-04-17T13:40:50.229Z,21.2
2023-04-17T13:46:28.587Z,21.2
2023-04-17T13:52:21.097Z,21.2
2023-04-17T13:58:13.170Z,21.2
2023-04-17T14:03:53.348Z,21.5
2023-04-17T14:09:33.687Z,22
2023-04-17T14:15:25.099Z,22.1
2023-04-17T14:21:09.325Z,22.1
2023-04-17T14:26:45.889Z,22.1
2023-04-17T14:32:21.971Z,22.1
2023-04-17T14:38:03.639Z,22.1
2023-04-17T14:43:56.825Z,22
2023-04-17T14:50:00.724Z,22
2023-04-17T14:55:50.880Z,21.9
2023-04-17T15:01:43.217Z,21.9
2023-04-17T15:07:36.193Z,21.9
2023-04-17T15:13:27.982Z,21.8
2023-04-17T15:19:04.922Z,21.9
2023-04-17T15:24:56.612Z,21.8
2023-04-17T15:30:47.582Z,21.8
2023-04-17T15:36:39.137Z,21.8
2023-04-17T15:42:32.499Z,21.8
2023-04-17T15:48:26.512Z,21.8
2023-04-17T15:54:43.213Z,21.8
2023-04-17T16:00:34.451Z,21.8
2023-04-17T16:06:27.847Z,21.7
2023-04-17T16:12:04.250Z,21.7
2023-04-17T16:17:55.725Z,21.8
2023-04-17T16:23:47.069Z,21.7
2023-04-17T16:35:16.189Z,21.6
2023-04-17T16:40:56.740Z,21.5
2023-04-17T16:47:13.104Z,21.4
2023-04-17T16:53:07.081Z,21.4
2023-04-17T16:58:57.935Z,21.4
2023-04-17T17:04:51.238Z,21.4
2023-04-17T17:09:56.668Z,21.4
2023-04-17T17:15:32.701Z,21.3
2023-04-17T17:21:25.043Z,21.3
2023-04-17T17:26:59.568Z,21.3
2023-04-17T17:44:15.962Z,21.2
2023-04-17T17:50:09.953Z,21.2
2023-04-17T18:35:18.924Z,21.1
2023-04-17T18:46:33.956Z,21.1
2023-04-17T19:08:53.285Z,21.2
2023-04-17T19:14:46.112Z,21.3
2023-04-17T19:20:38.668Z,21.3
2023-04-17T19:26:31.879Z,21.4
2023-04-17T19:32:09.214Z,21.4
2023-04-17T19:43:36.603Z,21.4
2023-04-17T19:49:31.623Z,21.4
2023-04-17T20:00:32.618Z,21.5
2023-04-17T20:11:50.138Z,21.6
2023-04-17T20:17:27.065Z,21.6
2023-04-17T20:23:21.095Z,21.6
2023-04-17T20:29:12.862Z,21.7
2023-04-17T20:35:05.660Z,21.6
2023-04-17T20:40:25.610Z,21.6
2023-04-17T20:46:18.028Z,21.7
2023-04-17T20:52:23.039Z,21.7
2023-04-17T20:58:14.307Z,21.7
2023-04-17T21:04:04.976Z,21.8
2023-04-17T21:09:41.950Z,21.8
2023-04-17T21:15:02.505Z,21.8
2023-04-17T21:20:39.203Z,21.8
2023-04-17T21:31:50.612Z,21.8
2023-04-17T21:43:21.157Z,21.8
2023-04-17T21:49:12.288Z,21.8
2023-04-17T21:55:04.289Z,21.8
2023-04-17T22:00:55.056Z,21.9
2023-04-17T22:06:47.277Z,21.9
2023-04-17T22:17:55.723Z,21.9
2023-04-17T22:23:47.223Z,21.9
2023-04-17T22:29:23.528Z,21.9
2023-04-17T22:34:59.562Z,21.9
2023-04-17T22:40:50.170Z,21.9
2023-04-17T22:51:48.636Z,21.9
2023-04-17T22:57:35.073Z,21.9
2023-04-17T23:03:27.716Z,21.9
2023-04-17T23:09:04.068Z,21.9
2023-04-17T23:14:40.135Z,21.9
2023-04-17T23:20:01.678Z,21.9
2023-04-17T23:25:27.730Z,21.9
2023-04-17T23:31:03.594Z,21.9
2023-04-17T23:36:40.485Z,21.9
2023-04-17T23:42:16.759Z,21.9
2023-04-17T23:48:09.235Z,22
2023-04-17T23:54:01.105Z,22
2023-04-17T23:59:52.911Z,22
